Time;durP1;ratioP1;P1;durP2;ratioP2;P2;SDS_P1;SDS_P2;PMS_P1;PMS_P2;Temp;Humidity;BMP_temperature;BMP_pressure;BME280_temperature;BME280_humidity;BME280_pressure;Samples;Min_cycle;Max_cycle;Signal;HPM_P1;HPM_P2
2024/02/17 00:00:23;;;;;;;8.10;6.15;;;9.40;99.90;;;;;;5017312;28;20304;-74
2024/02/17 00:02:50;;;;;;;8.55;6.72;;;9.40;99.90;;;;;;5017746;28;20203;-75
2024/02/17 00:05:17;;;;;;;7.65;6.47;;;9.40;99.90;;;;;;5020690;28;20320;-75
2024/02/17 00:07:44;;;;;;;8.98;6.50;;;9.40;99.90;;;;;;5019717;28;20235;-74
2024/02/17 00:10:11;;;;;;;7.80;6.45;;;9.40;99.90;;;;;;5020332;28;20243;-74
2024/02/17 00:12:38;;;;;;;7.32;6.45;;;9.40;99.90;;;;;;5020346;28;20273;-74
2024/02/17 00:15:07;;;;;;;6.65;5.47;;;9.40;99.90;;;;;;5021992;28;20323;-75
2024/02/17 00:17:35;;;;;;;8.38;6.00;;;9.40;99.90;;;;;;5019918;28;20221;-75
2024/02/17 00:20:02;;;;;;;7.97;5.80;;;9.40;99.90;;;;;;5017289;28;20251;-75
2024/02/17 00:22:29;;;;;;;7.35;5.95;;;9.40;99.90;;;;;;5016463;28;20196;-75
2024/02/17 00:24:56;;;;;;;7.25;5.65;;;9.40;99.90;;;;;;5017938;28;20667;-75
2024/02/17 00:27:23;;;;;;;7.03;5.53;;;9.40;99.90;;;;;;5019480;28;20192;-75
2024/02/17 00:29:50;;;;;;;8.27;6.35;;;9.40;99.90;;;;;;5016852;28;20864;-74
2024/02/17 00:32:17;;;;;;;8.15;5.75;;;9.30;99.90;;;;;;5021192;28;20211;-74
2024/02/17 00:34:46;;;;;;;6.22;5.15;;;9.30;99.90;;;;;;5016732;28;20902;-75
2024/02/17 00:37:13;;;;;;;7.03;5.35;;;9.30;99.90;;;;;;5017459;28;20220;-75
2024/02/17 00:39:40;;;;;;;9.38;6.28;;;9.30;99.90;;;;;;5016719;28;20199;-74
2024/02/17 00:42:08;;;;;;;6.10;5.40;;;9.30;99.90;;;;;;5017579;28;20328;-74
2024/02/17 00:44:35;;;;;;;6.20;5.25;;;9.30;99.90;;;;;;5016697;28;20291;-74
2024/02/17 00:47:02;;;;;;;5.85;4.93;;;9.30;99.90;;;;;;5016170;28;20330;-75
2024/02/17 00:49:29;;;;;;;6.53;5.30;;;9.30;99.90;;;;;;5021410;28;21017;-74
2024/02/17 00:51:58;;;;;;;5.95;5.32;;;9.30;99.90;;;;;;5020795;28;20251;-74
2024/02/17 00:54:25;;;;;;;7.72;5.43;;;9.30;99.90;;;;;;5023888;28;20289;-74
2024/02/17 00:56:52;;;;;;;9.93;5.35;;;9.30;99.90;;;;;;5020186;28;20223;-74
2024/02/17 00:59:19;;;;;;;6.95;4.97;;;9.20;99.90;;;;;;5026674;28;20385;-74
2024/02/17 01:01:46;;;;;;;5.57;4.75;;;9.30;99.90;;;;;;5021859;28;20255;-74
2024/02/17 01:04:13;;;;;;;6.85;5.20;;;9.30;99.90;;;;;;5024062;28;20648;-74
2024/02/17 01:06:40;;;;;;;6.15;5.20;;;9.30;99.90;;;;;;5021469;28;20220;-74
2024/02/17 01:09:08;;;;;;;5.57;4.93;;;9.20;99.90;;;;;;5020886;28;20733;-74
2024/02/17 01:11:36;;;;;;;8.07;5.28;;;9.20;99.90;;;;;;5023287;28;20282;-74
2024/02/17 01:14:03;;;;;;;4.85;4.45;;;9.20;99.90;;;;;;5023917;28;20775;-74
2024/02/17 01:16:30;;;;;;;7.50;4.88;;;9.20;99.90;;;;;;5017334;28;20228;-74
2024/02/17 01:18:57;;;;;;;5.38;4.88;;;9.20;99.90;;;;;;5025742;28;20258;-74
2024/02/17 01:21:24;;;;;;;5.68;4.68;;;9.20;99.90;;;;;;5025359;28;20272;-73
2024/02/17 01:23:51;;;;;;;5.55;4.38;;;9.20;99.90;;;;;;5021897;28;20204;-74
2024/02/17 01:26:20;;;;;;;4.70;4.30;;;9.20;99.90;;;;;;5025591;28;20983;-73
2024/02/17 01:28:47;;;;;;;5.47;4.75;;;9.20;99.90;;;;;;5026424;28;20199;-74
2024/02/17 01:31:14;;;;;;;4.47;4.07;;;9.20;99.90;;;;;;5023238;28;20692;-74
2024/02/17 01:33:41;;;;;;;4.95;4.03;;;9.20;99.90;;;;;;5022550;28;20694;-73
2024/02/17 01:36:14;;;;;;;5.20;4.70;;;9.20;99.90;;;;;;5024233;28;20247;-73
2024/02/17 01:38:41;;;;;;;4.80;4.28;;;9.20;99.90;;;;;;5022531;28;20303;-73
2024/02/17 01:41:08;;;;;;;4.45;4.05;;;9.10;99.90;;;;;;5027095;28;20230;-73
2024/02/17 01:43:36;;;;;;;4.30;3.90;;;9.10;99.90;;;;;;5026131;28;20210;-73
2024/02/17 01:46:04;;;;;;;5.47;4.45;;;9.10;99.90;;;;;;5018040;28;20228;-74
2024/02/17 01:48:31;;;;;;;4.85;4.30;;;9.10;99.90;;;;;;5026361;28;20277;-74
2024/02/17 01:50:59;;;;;;;5.85;4.80;;;9.10;99.90;;;;;;5029692;28;20250;-74
2024/02/17 01:53:26;;;;;;;5.38;4.32;;;9.10;99.90;;;;;;5026678;28;20345;-74
2024/02/17 01:55:54;;;;;;;4.78;4.20;;;9.10;99.90;;;;;;5018469;28;20953;-74
2024/02/17 01:58:21;;;;;;;6.00;4.82;;;9.10;99.90;;;;;;5030318;28;20337;-74
2024/02/17 02:00:50;;;;;;;5.10;4.13;;;9.00;99.90;;;;;;5018859;28;20220;-74
2024/02/17 02:03:17;;;;;;;5.30;4.20;;;9.00;99.90;;;;;;5017012;28;20227;-74
2024/02/17 02:05:44;;;;;;;5.18;4.18;;;9.00;99.90;;;;;;5022825;28;20324;-73
2024/02/17 02:08:11;;;;;;;5.70;4.30;;;9.10;99.90;;;;;;5021775;28;20202;-74
2024/02/17 02:10:39;;;;;;;5.40;4.15;;;9.10;99.90;;;;;;5021562;28;20313;-73
2024/02/17 02:13:08;;;;;;;5.10;4.60;;;9.10;99.90;;;;;;5022022;28;20282;-74
2024/02/17 02:15:41;;;;;;;4.57;3.88;;;9.10;99.90;;;;;;5019176;28;20219;-73
2024/02/17 02:18:10;;;;;;;4.43;3.85;;;9.10;99.90;;;;;;5017064;28;20208;-74
2024/02/17 02:20:37;;;;;;;5.13;4.28;;;9.10;99.90;;;;;;5023624;28;20589;-74
2024/02/17 02:23:05;;;;;;;4.57;4.15;;;9.10;99.90;;;;;;5023602;28;20568;-74
2024/02/17 02:25:33;;;;;;;4.28;3.88;;;9.10;99.90;;;;;;5019097;28;20310;-74
2024/02/17 02:28:01;;;;;;;5.97;4.63;;;9.10;99.90;;;;;;5019602;28;20380;-74
2024/02/17 02:30:29;;;;;;;6.38;4.70;;;9.10;99.90;;;;;;5014496;28;20223;-74
2024/02/17 02:32:59;;;;;;;4.30;3.92;;;9.10;99.90;;;;;;5015216;28;20207;-74
2024/02/17 02:35:26;;;;;;;4.30;3.90;;;9.00;99.90;;;;;;5016444;28;20721;-74
2024/02/17 02:37:53;;;;;;;4.88;4.07;;;9.00;99.90;;;;;;5012476;28;20626;-74
2024/02/17 02:40:20;;;;;;;4.22;3.92;;;9.00;99.90;;;;;;5014740;28;20279;-74
2024/02/17 02:42:47;;;;;;;4.38;3.72;;;9.00;99.90;;;;;;5017023;28;20261;-74
2024/02/17 02:45:16;;;;;;;5.30;3.88;;;9.00;99.90;;;;;;5017876;28;20223;-74
2024/02/17 02:47:43;;;;;;;3.90;3.50;;;9.00;99.90;;;;;;5014851;28;20689;-74
2024/02/17 02:50:10;;;;;;;3.90;3.50;;;9.00;99.90;;;;;;5019999;28;20223;-74
2024/02/17 02:52:37;;;;;;;4.10;3.70;;;8.90;99.90;;;;;;5020131;28;20206;-74
2024/02/17 02:55:05;;;;;;;4.65;4.13;;;9.00;99.90;;;;;;5015944;28;20290;-74
2024/02/17 02:57:33;;;;;;;4.20;3.80;;;8.90;99.90;;;;;;5019136;28;20774;-74
2024/02/17 03:00:00;;;;;;;4.28;3.88;;;8.90;99.90;;;;;;5018342;28;20712;-74
2024/02/17 03:02:28;;;;;;;4.25;3.83;;;8.90;99.90;;;;;;5019121;28;20673;-74
2024/02/17 03:04:57;;;;;;;3.97;3.47;;;8.80;99.90;;;;;;5016553;28;20933;-74
2024/02/17 03:07:25;;;;;;;5.32;4.10;;;8.80;99.90;;;;;;5019656;28;20824;-74
2024/02/17 03:09:52;;;;;;;4.57;3.92;;;8.80;99.90;;;;;;5019561;28;20219;-74
2024/02/17 03:12:19;;;;;;;4.30;3.92;;;8.80;99.90;;;;;;5018957;28;20265;-74
2024/02/17 03:14:46;;;;;;;4.53;4.13;;;8.70;99.90;;;;;;5017406;28;20207;-74
2024/02/17 03:17:13;;;;;;;4.03;3.72;;;8.60;99.90;;;;;;5017809;28;20203;-74
2024/02/17 03:19:42;;;;;;;4.10;3.70;;;8.50;99.90;;;;;;5018053;28;20204;-74
2024/02/17 03:22:09;;;;;;;3.80;3.50;;;8.50;99.90;;;;;;5016751;28;20587;-74
2024/02/17 03:24:36;;;;;;;4.13;3.72;;;8.50;99.90;;;;;;5024412;28;20234;-73
2024/02/17 03:27:03;;;;;;;4.07;3.67;;;8.40;99.90;;;;;;5023433;28;20257;-73
2024/02/17 03:29:30;;;;;;;4.00;3.70;;;8.40;99.90;;;;;;5016487;28;20247;-74
2024/02/17 03:31:57;;;;;;;4.63;4.22;;;8.40;99.90;;;;;;5019441;28;20227;-74
2024/02/17 03:34:24;;;;;;;3.83;3.53;;;8.40;99.90;;;;;;5019298;28;20253;-74
2024/02/17 03:36:52;;;;;;;4.32;3.60;;;8.30;99.90;;;;;;5019119;28;20234;-74
2024/02/17 03:39:19;;;;;;;3.90;3.55;;;8.40;99.90;;;;;;5016036;28;21180;-74
2024/02/17 03:41:47;;;;;;;3.83;3.53;;;8.30;99.90;;;;;;5022389;28;20219;-73
2024/02/17 03:44:13;;;;;;;4.05;3.65;;;8.30;99.90;;;;;;5019780;28;20203;-73
2024/02/17 03:46:41;;;;;;;3.88;3.45;;;8.30;99.90;;;;;;5019583;28;20294;-73
2024/02/17 03:49:09;;;;;;;4.07;3.67;;;8.20;99.90;;;;;;5018055;28;20798;-73
2024/02/17 03:51:36;;;;;;;3.70;3.40;;;8.20;99.90;;;;;;5015095;28;20368;-74
2024/02/17 03:54:05;;;;;;;4.10;3.38;;;8.20;99.90;;;;;;5018556;28;20578;-74
2024/02/17 03:56:32;;;;;;;3.60;3.30;;;8.20;99.90;;;;;;5016418;28;20243;-74
2024/02/17 03:58:59;;;;;;;3.63;3.33;;;8.10;99.90;;;;;;5019930;28;20255;-74
2024/02/17 04:01:26;;;;;;;3.92;3.63;;;8.10;99.90;;;;;;5016401;28;20228;-74
2024/02/17 04:03:53;;;;;;;3.50;3.20;;;8.10;99.90;;;;;;5018582;28;20638;-73
2024/02/17 04:06:21;;;;;;;3.45;3.15;;;8.10;99.90;;;;;;5014695;28;20317;-73
2024/02/17 04:08:48;;;;;;;3.80;3.40;;;8.10;99.90;;;;;;5019485;28;20273;-74
2024/02/17 04:11:16;;;;;;;3.42;3.15;;;8.10;99.90;;;;;;5015238;28;20211;-74
2024/02/17 04:13:43;;;;;;;3.60;3.30;;;8.10;99.90;;;;;;5014458;28;20204;-74
2024/02/17 04:16:10;;;;;;;3.63;3.33;;;8.10;99.90;;;;;;5019663;28;20227;-74
2024/02/17 04:18:37;;;;;;;3.15;2.85;;;8.10;99.90;;;;;;5022937;28;20704;-74
2024/02/17 04:21:04;;;;;;;3.95;3.55;;;8.10;99.90;;;;;;5017853;28;20274;-74
2024/02/17 04:23:30;;;;;;;3.65;3.35;;;8.10;99.90;;;;;;5017491;28;20203;-74
2024/02/17 04:26:01;;;;;;;3.53;3.22;;;8.00;99.90;;;;;;5023455;28;20223;-74
2024/02/17 04:28:29;;;;;;;3.53;3.22;;;8.10;99.90;;;;;;5018190;28;20191;-74
2024/02/17 04:30:57;;;;;;;3.63;3.33;;;8.00;99.90;;;;;;5019306;28;20222;-74
2024/02/17 04:33:24;;;;;;;3.53;3.30;;;8.00;99.90;;;;;;5020658;28;20253;-74
2024/02/17 04:35:53;;;;;;;3.40;3.10;;;8.00;99.90;;;;;;5016698;28;20223;-74
2024/02/17 04:38:20;;;;;;;3.75;3.45;;;8.00;99.90;;;;;;5022918;28;20251;-74
2024/02/17 04:40:47;;;;;;;3.60;3.30;;;8.00;99.90;;;;;;5018951;28;20652;-74
2024/02/17 04:43:15;;;;;;;4.03;3.63;;;8.00;99.90;;;;;;5023429;28;20286;-74
2024/02/17 04:45:43;;;;;;;3.72;3.35;;;8.00;99.90;;;;;;5014665;28;20320;-74
2024/02/17 04:48:10;;;;;;;3.70;3.28;;;7.90;99.90;;;;;;5021253;28;20903;-74
2024/02/17 04:50:37;;;;;;;3.67;3.38;;;7.90;99.90;;;;;;5015970;28;20223;-74
2024/02/17 04:53:05;;;;;;;3.35;3.15;;;7.90;99.90;;;;;;5017389;28;20337;-74
2024/02/17 04:55:32;;;;;;;3.90;3.60;;;7.90;99.90;;;;;;5025809;28;20815;-74
2024/02/17 04:57:59;;;;;;;3.47;3.17;;;7.80;99.90;;;;;;5022896;28;20220;-74
2024/02/17 05:00:27;;;;;;;3.60;3.30;;;7.80;99.90;;;;;;5006721;28;20219;-73
2024/02/17 05:02:55;;;;;;;3.92;3.63;;;7.80;99.90;;;;;;5021724;28;20243;-74
2024/02/17 05:05:22;;;;;;;3.35;3.13;;;7.80;99.90;;;;;;5021051;28;20270;-74
2024/02/17 05:07:50;;;;;;;3.28;3.03;;;7.70;99.90;;;;;;5027180;28;20213;-74
2024/02/17 05:10:17;;;;;;;3.47;3.28;;;7.70;99.90;;;;;;5020853;28;20247;-73
2024/02/17 05:12:44;;;;;;;3.10;2.90;;;7.70;99.90;;;;;;5022837;28;20214;-74
2024/02/17 05:15:11;;;;;;;3.60;3.40;;;7.70;99.90;;;;;;5017504;28;20235;-73
2024/02/17 05:17:39;;;;;;;3.40;3.20;;;7.70;99.90;;;;;;5020831;28;20235;-73
2024/02/17 05:20:08;;;;;;;3.47;3.28;;;7.70;99.90;;;;;;5008956;28;20806;-73
2024/02/17 05:22:36;;;;;;;3.47;3.28;;;7.70;99.90;;;;;;5024189;28;20228;-73
2024/02/17 05:25:03;;;;;;;3.45;3.15;;;7.70;99.90;;;;;;5020704;28;20232;-74
2024/02/17 05:27:30;;;;;;;3.55;3.33;;;7.70;99.90;;;;;;5020379;28;20231;-73
2024/02/17 05:29:57;;;;;;;3.78;3.40;;;7.70;99.90;;;;;;5024228;28;20227;-74
2024/02/17 05:32:24;;;;;;;3.80;3.15;;;7.70;99.90;;;;;;5016426;28;20289;-74
2024/02/17 05:34:51;;;;;;;3.42;3.13;;;7.70;99.90;;;;;;5026262;28;20802;-74
2024/02/17 05:37:19;;;;;;;3.22;3.00;;;7.70;99.90;;;;;;5014358;28;20629;-73
2024/02/17 05:39:46;;;;;;;3.13;2.92;;;7.70;99.90;;;;;;5021432;28;20774;-73
2024/02/17 05:42:13;;;;;;;3.55;3.35;;;7.70;99.90;;;;;;5022890;28;20749;-74
2024/02/17 05:44:40;;;;;;;3.75;3.45;;;7.70;99.90;;;;;;5020947;28;20204;-74
2024/02/17 05:47:07;;;;;;;3.45;3.20;;;7.70;99.90;;;;;;5019720;28;20289;-73
2024/02/17 05:49:34;;;;;;;3.80;3.50;;;7.70;99.90;;;;;;5016133;28;20332;-73
2024/02/17 05:52:01;;;;;;;4.63;4.22;;;7.70;99.90;;;;;;5016678;28;20290;-73
2024/02/17 05:54:29;;;;;;;6.38;5.78;;;7.70;99.90;;;;;;5023370;28;20809;-73
2024/02/17 05:56:56;;;;;;;8.77;7.60;;;7.70;99.90;;;;;;5019282;28;20736;-74
2024/02/17 05:59:23;;;;;;;9.02;8.05;;;7.70;99.90;;;;;;5017957;28;20243;-74
2024/02/17 06:01:50;;;;;;;9.45;8.50;;;7.70;99.90;;;;;;5017155;28;20216;-73
2024/02/17 06:04:17;;;;;;;11.75;9.05;;;7.70;99.90;;;;;;5019360;28;20637;-73
2024/02/17 06:06:44;;;;;;;10.15;9.15;;;7.70;99.90;;;;;;5016380;28;20242;-74
2024/02/17 06:09:11;;;;;;;10.55;9.45;;;7.70;99.90;;;;;;5017080;28;20200;-74
2024/02/17 06:11:39;;;;;;;9.55;8.65;;;7.70;99.90;;;;;;5013025;28;20333;-74
2024/02/17 06:14:06;;;;;;;7.93;7.22;;;7.80;99.90;;;;;;5023355;28;20257;-74
2024/02/17 06:16:33;;;;;;;6.53;5.93;;;7.80;99.90;;;;;;5022359;28;20260;-73
2024/02/17 06:21:45;;;;;;;6.28;5.78;;;7.70;99.90;;;;;;5021542;28;20718;-73
2024/02/17 06:24:12;;;;;;;5.10;4.70;;;7.70;99.90;;;;;;5019705;28;20200;-74
2024/02/17 06:26:40;;;;;;;4.50;4.10;;;7.70;99.90;;;;;;5021778;28;20301;-73
2024/02/17 06:29:07;;;;;;;4.57;4.18;;;7.70;99.90;;;;;;5018437;28;20231;-74
2024/02/17 06:31:34;;;;;;;5.00;4.60;;;7.70;99.90;;;;;;5014714;28;20327;-73
2024/02/17 06:34:01;;;;;;;4.22;3.92;;;7.70;99.90;;;;;;5020532;28;20302;-74
2024/02/17 06:36:28;;;;;;;4.50;4.10;;;7.70;99.90;;;;;;5021869;28;20251;-73
2024/02/17 06:38:55;;;;;;;4.57;4.18;;;7.70;99.90;;;;;;5014308;28;20904;-74
2024/02/17 06:41:22;;;;;;;4.78;4.38;;;7.70;99.90;;;;;;5021184;28;20749;-73
2024/02/17 06:43:51;;;;;;;3.90;3.55;;;7.80;99.90;;;;;;5015430;28;20818;-73
2024/02/17 06:46:18;;;;;;;3.75;3.53;;;7.80;99.90;;;;;;5016475;28;20223;-75
2024/02/17 06:48:49;;;;;;;3.92;3.63;;;7.80;99.90;;;;;;5015361;28;20203;-74
2024/02/17 06:51:16;;;;;;;3.75;3.45;;;7.80;99.90;;;;;;5016360;28;20215;-74
2024/02/17 06:53:44;;;;;;;4.07;3.67;;;7.90;99.90;;;;;;5015766;28;20254;-74
2024/02/17 06:56:10;;;;;;;8.40;3.70;;;7.90;99.90;;;;;;5015544;28;20318;-74
2024/02/17 06:58:37;;;;;;;3.70;3.40;;;7.90;99.90;;;;;;5017097;28;20215;-74
2024/02/17 07:01:06;;;;;;;3.90;3.60;;;8.00;99.90;;;;;;5011634;28;20235;-74
2024/02/17 07:03:33;;;;;;;3.35;3.15;;;8.00;99.90;;;;;;5017319;28;20289;-73
2024/02/17 07:06:00;;;;;;;4.00;3.70;;;8.10;99.90;;;;;;5014321;28;21010;-74
2024/02/17 07:08:27;;;;;;;4.68;4.28;;;8.10;99.90;;;;;;5016678;28;20721;-74
2024/02/17 07:10:54;;;;;;;5.03;4.68;;;8.10;99.90;;;;;;5020649;28;20227;-74
2024/02/17 07:13:21;;;;;;;5.47;5.07;;;8.10;99.90;;;;;;5013546;28;20208;-74
2024/02/17 07:15:49;;;;;;;5.63;5.22;;;8.10;99.90;;;;;;5016315;28;20224;-73
2024/02/17 07:18:17;;;;;;;5.30;4.85;;;8.20;99.90;;;;;;5018548;28;20207;-73
2024/02/17 07:20:45;;;;;;;5.18;4.68;;;8.20;99.90;;;;;;5015498;28;21299;-73
2024/02/17 07:23:13;;;;;;;4.85;4.45;;;8.20;99.90;;;;;;5021954;28;20203;-75
2024/02/17 07:25:41;;;;;;;4.63;4.22;;;8.30;99.90;;;;;;5018207;28;20277;-74
2024/02/17 07:28:11;;;;;;;5.03;4.53;;;8.30;99.90;;;;;;5024301;28;20234;-74
2024/02/17 07:30:41;;;;;;;4.72;3.90;;;8.40;99.90;;;;;;5014156;28;20224;-74
2024/02/17 07:33:09;;;;;;;4.32;3.92;;;8.40;99.90;;;;;;5020760;28;20216;-74
2024/02/17 07:35:41;;;;;;;4.60;4.20;;;8.50;99.90;;;;;;5013105;28;20806;-73
2024/02/17 07:38:09;;;;;;;4.03;3.72;;;8.50;99.90;;;;;;5014253;28;20262;-73
2024/02/17 07:40:36;;;;;;;3.75;3.45;;;8.90;99.90;;;;;;5014709;28;20749;-73
2024/02/17 07:43:03;;;;;;;3.80;3.50;;;9.00;99.90;;;;;;5016545;28;20231;-73
2024/02/17 07:45:30;;;;;;;4.90;4.40;;;9.10;99.90;;;;;;5012866;28;20323;-74
2024/02/17 07:47:57;;;;;;;19.92;13.57;;;9.30;99.90;;;;;;5020612;28;20199;-75
2024/02/17 07:50:25;;;;;;;64.47;36.25;;;9.40;99.90;;;;;;5015376;28;20243;-75
2024/02/17 07:52:54;;;;;;;30.60;18.95;;;9.90;99.90;;;;;;5016301;28;20806;-73
2024/02/17 07:55:21;;;;;;;18.40;12.75;;;10.50;99.90;;;;;;5011717;28;20779;-73
2024/02/17 07:57:48;;;;;;;14.23;10.50;;;11.10;99.90;;;;;;5021210;28;20294;-73
2024/02/17 08:00:16;;;;;;;9.75;7.80;;;11.60;99.90;;;;;;5017436;28;20644;-74
2024/02/17 08:02:45;;;;;;;7.85;6.55;;;12.00;99.90;;;;;;5017173;28;20250;-74
2024/02/17 08:05:13;;;;;;;6.47;5.57;;;12.50;99.90;;;;;;5014301;28;20737;-74
2024/02/17 08:07:41;;;;;;;6.90;5.43;;;13.10;99.90;;;;;;5021819;28;20224;-74
2024/02/17 08:10:11;;;;;;;8.30;5.40;;;13.60;99.90;;;;;;5012120;28;20564;-74
2024/02/17 08:12:38;;;;;;;6.35;5.75;;;14.00;99.90;;;;;;5017972;28;20402;-74
2024/02/17 08:15:06;;;;;;;6.57;5.65;;;14.50;99.90;;;;;;5014398;28;20255;-74
2024/02/17 08:17:34;;;;;;;5.68;5.18;;;14.80;99.90;;;;;;5020638;28;20200;-74
2024/02/17 08:20:01;;;;;;;5.85;5.03;;;14.90;99.90;;;;;;5021143;28;20612;-75
2024/02/17 08:22:28;;;;;;;5.68;4.90;;;15.00;99.90;;;;;;5020325;28;20767;-74
2024/02/17 08:24:55;;;;;;;5.40;4.90;;;15.20;99.90;;;;;;5012977;28;20673;-74
2024/02/17 08:27:23;;;;;;;5.38;4.88;;;15.50;99.90;;;;;;5023299;28;20227;-74
2024/02/17 08:29:50;;;;;;;5.70;4.68;;;15.80;99.90;;;;;;5018333;28;20199;-75
2024/02/17 08:32:17;;;;;;;5.13;4.68;;;16.10;99.90;;;;;;5021594;28;20298;-74
2024/02/17 08:34:46;;;;;;;4.65;4.25;;;16.40;99.90;;;;;;5013338;28;20246;-74
2024/02/17 08:37:13;;;;;;;4.60;4.13;;;16.60;99.90;;;;;;5037613;28;20752;-74
2024/02/17 08:39:40;;;;;;;5.75;4.05;;;16.80;99.90;;;;;;5036875;28;20219;-74
2024/02/17 08:42:10;;;;;;;4.45;3.97;;;17.00;99.90;;;;;;5041808;28;20834;-74
2024/02/17 08:44:38;;;;;;;4.13;3.72;;;17.30;99.90;;;;;;5039261;28;20199;-74
2024/02/17 08:47:05;;;;;;;4.45;3.95;;;17.50;99.90;;;;;;5023571;28;20414;-74
2024/02/17 08:49:32;;;;;;;5.47;3.50;;;17.40;99.90;;;;;;5037652;28;20291;-74
2024/02/17 08:52:00;;;;;;;5.03;3.97;;;17.20;99.90;;;;;;5014949;28;20311;-74
2024/02/17 08:54:27;;;;;;;3.97;3.58;;;17.20;99.90;;;;;;5016899;28;20333;-74
2024/02/17 08:56:54;;;;;;;4.03;3.53;;;17.30;99.90;;;;;;5013762;28;20801;-74
2024/02/17 08:59:21;;;;;;;4.22;3.83;;;17.40;99.90;;;;;;5017643;28;20299;-74
2024/02/17 09:01:50;;;;;;;5.22;3.42;;;17.50;99.90;;;;;;5015771;28;20227;-73
2024/02/17 09:04:17;;;;;;;4.85;4.45;;;17.60;99.90;;;;;;5014591;28;20258;-74
2024/02/17 09:06:44;;;;;;;4.38;4.00;;;17.80;99.90;;;;;;5014334;28;20748;-74
2024/02/17 09:09:11;;;;;;;5.82;4.35;;;17.90;99.90;;;;;;5019719;28;20208;-74
2024/02/17 09:11:38;;;;;;;4.68;4.28;;;17.90;99.90;;;;;;5024564;28;20270;-74
2024/02/17 09:14:05;;;;;;;5.05;4.60;;;17.90;99.90;;;;;;5016747;28;20216;-73
2024/02/17 09:16:32;;;;;;;4.80;4.40;;;17.80;99.90;;;;;;5018455;28;20231;-75
2024/02/17 09:19:00;;;;;;;5.18;4.65;;;18.00;99.90;;;;;;5021527;28;20262;-75
2024/02/17 09:21:27;;;;;;;4.30;3.90;;;18.20;99.90;;;;;;5019661;28;20773;-75
2024/02/17 09:23:54;;;;;;;4.47;3.70;;;18.10;99.90;;;;;;5020480;28;20227;-75
2024/02/17 09:26:22;;;;;;;4.57;4.18;;;17.90;99.90;;;;;;5035727;28;20265;-75
2024/02/17 09:28:49;;;;;;;4.28;3.72;;;18.00;99.90;;;;;;5019323;28;20681;-75
2024/02/17 09:31:16;;;;;;;4.35;3.95;;;18.10;99.90;;;;;;5016465;28;20343;-75
2024/02/17 09:33:43;;;;;;;4.75;4.35;;;18.20;99.90;;;;;;5019769;28;20203;-75
2024/02/17 09:36:12;;;;;;;3.78;3.47;;;18.30;99.90;;;;;;5020218;28;20243;-74
2024/02/17 09:38:39;;;;;;;5.55;4.57;;;18.20;99.90;;;;;;5019081;28;20202;-76
2024/02/17 09:41:06;;;;;;;3.80;3.50;;;18.40;99.90;;;;;;5018073;28;20255;-75
2024/02/17 09:43:33;;;;;;;4.95;3.88;;;18.60;99.90;;;;;;5022753;28;20853;-75
2024/02/17 09:46:00;;;;;;;5.28;3.53;;;18.70;99.90;;;;;;4998014;28;20230;-75
2024/02/17 09:48:29;;;;;;;3.88;3.58;;;18.60;99.90;;;;;;5020355;28;20218;-76
2024/02/17 09:50:58;;;;;;;4.38;4.00;;;18.60;99.90;;;;;;4999668;28;20248;-76
2024/02/17 09:53:31;;;;;;;4.35;3.97;;;18.60;99.90;;;;;;5015644;28;20228;-75
2024/02/17 09:56:00;;;;;;;4.20;3.78;;;18.40;99.90;;;;;;5004877;28;20226;-77
2024/02/17 09:58:26;;;;;;;3.40;3.10;;;18.20;99.90;;;;;;5018747;28;20277;-78
2024/02/17 10:00:54;;;;;;;4.75;3.53;;;18.20;99.90;;;;;;5021033;28;20258;-77
2024/02/17 10:03:24;;;;;;;3.83;3.53;;;18.30;99.90;;;;;;5020275;28;20204;-76
2024/02/17 10:05:51;;;;;;;4.03;3.63;;;18.50;99.90;;;;;;5018133;28;20223;-78
2024/02/17 10:08:18;;;;;;;3.90;3.50;;;18.30;99.90;;;;;;5021911;28;20209;-79
2024/02/17 10:10:57;;;;;;;3.83;3.28;;;18.00;99.90;;;;;;5020456;28;20270;-80
2024/02/17 10:13:25;;;;;;;4.03;3.47;;;17.90;99.90;;;;;;5021956;28;20200;-76
2024/02/17 10:15:52;;;;;;;3.67;3.38;;;17.90;99.90;;;;;;5014828;28;20277;-78
2024/02/17 10:18:19;;;;;;;3.40;3.10;;;18.00;99.90;;;;;;5019621;28;20223;-77
2024/02/17 10:20:46;;;;;;;5.95;3.47;;;18.40;99.90;;;;;;5006604;28;20749;-78
2024/02/17 10:23:13;;;;;;;4.18;3.78;;;18.60;99.90;;;;;;5016441;28;20334;-77
2024/02/17 10:25:41;;;;;;;4.93;4.05;;;18.20;99.90;;;;;;5003660;28;20318;-77
2024/02/17 10:28:09;;;;;;;4.53;3.20;;;17.80;99.90;;;;;;5039125;28;20206;-78
2024/02/17 10:30:36;;;;;;;3.30;3.00;;;18.10;99.90;;;;;;5034159;28;20271;-77
2024/02/17 10:33:09;;;;;;;3.65;3.15;;;18.60;99.90;;;;;;5016595;28;20266;-78
2024/02/17 10:35:38;;;;;;;3.78;3.42;;;18.50;99.90;;;;;;5022654;28;20346;-78
2024/02/17 10:38:07;;;;;;;4.00;2.95;;;18.10;99.90;;;;;;5042566;28;20236;-78
2024/02/17 10:40:35;;;;;;;2.90;2.70;;;17.90;99.90;;;;;;5045731;28;20227;-78
2024/02/17 10:43:02;;;;;;;4.30;3.40;;;17.50;99.90;;;;;;5043103;28;20241;-79
2024/02/17 10:45:31;;;;;;;3.20;2.90;;;17.20;99.90;;;;;;5019983;28;20226;-79
2024/02/17 10:48:03;;;;;;;3.30;3.00;;;16.90;99.90;;;;;;5041655;28;20288;-78
2024/02/17 10:50:32;;;;;;;3.90;3.50;;;16.70;99.90;;;;;;5022189;28;20284;-78
2024/02/17 10:53:05;;;;;;;3.40;3.20;;;16.80;99.90;;;;;;5039916;28;20276;-78
2024/02/17 10:55:37;;;;;;;3.75;3.13;;;16.80;99.90;;;;;;5038440;28;20234;-78
2024/02/17 10:58:10;;;;;;;3.97;3.58;;;17.00;99.90;;;;;;5040464;28;20234;-78
2024/02/17 11:00:44;;;;;;;3.47;3.20;;;17.50;99.90;;;;;;5035628;28;20223;-77
2024/02/17 11:03:13;;;;;;;3.67;3.30;;;17.80;99.90;;;;;;5035590;28;20234;-76
2024/02/17 11:05:44;;;;;;;4.05;3.28;;;18.20;99.90;;;;;;5034376;28;20226;-77
2024/02/17 11:08:11;;;;;;;3.67;3.10;;;18.50;99.90;;;;;;5037007;28;20199;-76
2024/02/17 11:10:41;;;;;;;3.95;3.65;;;18.30;99.90;;;;;;5036821;28;20269;-76
2024/02/17 11:13:21;;;;;;;4.05;3.55;;;17.90;99.90;;;;;;5039821;28;20210;-76
2024/02/17 11:16:04;;;;;;;3.80;3.47;;;17.40;99.90;;;;;;5037754;28;20587;-76
2024/02/17 11:18:32;;;;;;;4.28;3.40;;;17.10;99.90;;;;;;5041816;28;20276;-76
2024/02/17 11:20:59;;;;;;;3.72;3.33;;;17.00;99.90;;;;;;5042436;28;20258;-74
2024/02/17 11:23:34;;;;;;;3.80;3.38;;;17.10;99.90;;;;;;5036776;28;20985;-75
2024/02/17 11:26:01;;;;;;;3.90;3.33;;;17.30;99.90;;;;;;5034420;28;20273;-76
2024/02/17 11:28:30;;;;;;;5.82;3.40;;;17.50;99.90;;;;;;5033475;28;20702;-77
2024/02/17 11:30:59;;;;;;;3.78;3.05;;;17.60;99.90;;;;;;5018291;28;20219;-76
2024/02/17 11:33:30;;;;;;;3.67;3.35;;;17.70;99.90;;;;;;5035796;28;20200;-76
2024/02/17 11:36:01;;;;;;;4.05;3.65;;;17.80;99.90;;;;;;5030151;28;20225;-76
2024/02/17 11:38:30;;;;;;;3.17;2.95;;;18.00;99.90;;;;;;5007832;28;20295;-76
2024/02/17 11:40:58;;;;;;;4.13;3.22;;;18.20;99.90;;;;;;5033419;28;20808;-77
2024/02/17 11:43:26;;;;;;;4.40;3.75;;;18.20;99.90;;;;;;5037830;28;20468;-76
2024/02/17 11:45:54;;;;;;;3.78;3.22;;;17.90;99.90;;;;;;5034949;28;20304;-77
2024/02/17 11:48:25;;;;;;;3.50;3.20;;;18.00;99.90;;;;;;5036418;28;20384;-77
2024/02/17 11:53:47;;;;;;;3.30;3.00;;;17.60;99.90;;;;;;5038757;28;20208;-77
2024/02/17 11:56:14;;;;;;;3.25;2.95;;;17.30;99.90;;;;;;5034896;28;20230;-77
2024/02/17 11:58:42;;;;;;;3.78;3.42;;;17.10;99.90;;;;;;5033542;28;20195;-77
2024/02/17 12:01:10;;;;;;;3.97;3.03;;;16.90;99.90;;;;;;5035610;28;20219;-76
2024/02/17 12:03:37;;;;;;;3.58;3.25;;;16.70;99.90;;;;;;5017850;28;20916;-75
2024/02/17 12:06:09;;;;;;;3.55;2.85;;;17.00;99.90;;;;;;5030703;28;20227;-76
2024/02/17 12:08:36;;;;;;;3.25;3.05;;;17.60;99.90;;;;;;5036051;28;20204;-75
2024/02/17 12:11:04;;;;;;;3.53;3.17;;;17.50;99.90;;;;;;5036625;28;20219;-76
2024/02/17 12:13:32;;;;;;;3.40;3.00;;;17.40;99.90;;;;;;5036737;28;20268;-77
2024/02/17 12:16:05;;;;;;;2.78;2.58;;;17.50;99.90;;;;;;5017855;28;20258;-74
2024/02/17 12:18:33;;;;;;;3.33;2.97;;;17.70;99.90;;;;;;5042428;28;20206;-75
2024/02/17 12:21:05;;;;;;;3.30;3.05;;;17.80;99.90;;;;;;5045332;28;20301;-75
2024/02/17 12:23:35;;;;;;;2.97;2.78;;;17.70;99.90;;;;;;5026628;28;20294;-75
2024/02/17 12:26:03;;;;;;;3.45;3.10;;;17.60;99.90;;;;;;5037237;28;20263;-75
2024/02/17 12:28:31;;;;;;;3.95;2.92;;;17.50;99.90;;;;;;5040379;28;20375;-74
2024/02/17 12:30:59;;;;;;;2.97;2.78;;;17.40;99.90;;;;;;5036980;28;20246;-74
2024/02/17 12:33:26;;;;;;;5.72;3.00;;;17.30;99.90;;;;;;5035407;28;20538;-75
2024/02/17 12:35:54;;;;;;;5.18;2.97;;;17.20;99.90;;;;;;5036359;28;20280;-77
2024/02/17 12:38:23;;;;;;;2.95;2.75;;;17.10;99.90;;;;;;5041758;28;20257;-76
2024/02/17 12:40:52;;;;;;;2.60;2.40;;;17.10;99.90;;;;;;5055861;28;20268;-77
2024/02/17 12:43:20;;;;;;;3.67;2.75;;;16.90;99.90;;;;;;5037554;28;20202;-77
2024/02/17 12:45:48;;;;;;;2.70;2.50;;;16.90;99.90;;;;;;5043495;28;20223;-77
2024/02/17 12:48:15;;;;;;;7.00;2.15;;;17.00;99.90;;;;;;5040197;28;20224;-74
2024/02/17 12:50:43;;;;;;;2.90;2.63;;;17.10;99.90;;;;;;5042310;28;20246;-74
2024/02/17 12:53:15;;;;;;;3.35;3.05;;;17.10;99.90;;;;;;5041024;28;20253;-74
2024/02/17 12:55:43;;;;;;;3.22;2.92;;;17.00;99.90;;;;;;5038446;28;20223;-75
2024/02/17 12:58:11;;;;;;;3.20;2.90;;;16.90;99.90;;;;;;5037969;28;20284;-74
2024/02/17 13:00:39;;;;;;;3.28;2.70;;;16.80;99.90;;;;;;5040918;28;20229;-74